sensor_id;sensor_type;location;lat;lon;timestamp;P1;durP1;ratioP1;P2;durP2;ratioP2
793;SDS011;380;48.738;9.214;2023-04-27T00:01:24;3.58;;;2.17;;
793;SDS011;380;48.738;9.214;2023-04-27T00:03:49;2.90;;;1.77;;
793;SDS011;380;48.738;9.214;2023-04-27T00:06:15;5.18;;;2.10;;
793;SDS011;380;48.738;9.214;2023-04-27T00:08:42;6.80;;;2.72;;
793;SDS011;380;48.738;9.214;2023-04-27T00:11:08;3.15;;;2.13;;
793;SDS011;380;48.738;9.214;2023-04-27T00:13:34;3.25;;;1.92;;
793;SDS011;380;48.738;9.214;2023-04-27T00:16:00;2.88;;;2.03;;
793;SDS011;380;48.738;9.214;2023-04-27T00:18:27;4.40;;;2.35;;
793;SDS011;380;48.738;9.214;2023-04-27T00:20:53;3.88;;;2.13;;
793;SDS011;380;48.738;9.214;2023-04-27T00:23:19;3.08;;;2.17;;
793;SDS011;380;48.738;9.214;2023-04-27T00:25:45;2.55;;;1.75;;
793;SDS011;380;48.738;9.214;2023-04-27T00:28:11;2.85;;;1.90;;
793;SDS011;380;48.738;9.214;2023-04-27T00:30:37;2.22;;;1.63;;
793;SDS011;380;48.738;9.214;2023-04-27T00:33:03;3.97;;;2.17;;
793;SDS011;380;48.738;9.214;2023-04-27T00:35:31;3.45;;;2.05;;
793;SDS011;380;48.738;9.214;2023-04-27T00:37:57;4.35;;;2.50;;
793;SDS011;380;48.738;9.214;2023-04-27T00:40:23;4.05;;;2.35;;
793;SDS011;380;48.738;9.214;2023-04-27T00:42:49;3.88;;;3.10;;
793;SDS011;380;48.738;9.214;2023-04-27T00:45:15;3.63;;;2.80;;
793;SDS011;380;48.738;9.214;2023-04-27T00:47:41;3.47;;;2.60;;
793;SDS011;380;48.738;9.214;2023-04-27T00:50:08;3.85;;;2.90;;
793;SDS011;380;48.738;9.214;2023-04-27T00:52:37;5.60;;;2.78;;
793;SDS011;380;48.738;9.214;2023-04-27T00:55:03;2.83;;;2.22;;
793;SDS011;380;48.738;9.214;2023-04-27T00:57:30;3.42;;;2.40;;
793;SDS011;380;48.738;9.214;2023-04-27T00:59:56;4.47;;;3.63;;
793;SDS011;380;48.738;9.214;2023-04-27T01:02:24;3.20;;;2.53;;
793;SDS011;380;48.738;9.214;2023-04-27T01:04:50;4.38;;;2.90;;
793;SDS011;380;48.738;9.214;2023-04-27T01:07:17;5.03;;;2.88;;
793;SDS011;380;48.738;9.214;2023-04-27T01:09:43;4.10;;;2.92;;
793;SDS011;380;48.738;9.214;2023-04-27T01:12:10;3.85;;;2.78;;
793;SDS011;380;48.738;9.214;2023-04-27T01:14:36;4.13;;;3.10;;
793;SDS011;380;48.738;9.214;2023-04-27T01:17:02;4.22;;;3.00;;
793;SDS011;380;48.738;9.214;2023-04-27T01:19:28;6.65;;;3.47;;
793;SDS011;380;48.738;9.214;2023-04-27T01:21:54;5.18;;;3.58;;
793;SDS011;380;48.738;9.214;2023-04-27T01:24:20;3.42;;;3.10;;
793;SDS011;380;48.738;9.214;2023-04-27T01:26:46;5.57;;;3.97;;
793;SDS011;380;48.738;9.214;2023-04-27T01:29:13;3.90;;;3.47;;
793;SDS011;380;48.738;9.214;2023-04-27T01:31:39;5.43;;;3.53;;
793;SDS011;380;48.738;9.214;2023-04-27T01:34:05;4.00;;;3.00;;
793;SDS011;380;48.738;9.214;2023-04-27T01:36:31;3.65;;;2.78;;
793;SDS011;380;48.738;9.214;2023-04-27T01:38:57;4.38;;;3.45;;
793;SDS011;380;48.738;9.214;2023-04-27T01:41:23;5.53;;;3.28;;
793;SDS011;380;48.738;9.214;2023-04-27T01:43:49;4.75;;;3.95;;
793;SDS011;380;48.738;9.214;2023-04-27T01:46:15;6.82;;;3.42;;
793;SDS011;380;48.738;9.214;2023-04-27T01:48:41;5.75;;;3.67;;
793;SDS011;380;48.738;9.214;2023-04-27T01:51:08;5.40;;;3.72;;
793;SDS011;380;48.738;9.214;2023-04-27T01:53:34;4.03;;;3.05;;
793;SDS011;380;48.738;9.214;2023-04-27T01:56:00;5.90;;;4.05;;
793;SDS011;380;48.738;9.214;2023-04-27T01:58:26;3.33;;;3.03;;
793;SDS011;380;48.738;9.214;2023-04-27T02:00:52;5.05;;;3.95;;
793;SDS011;380;48.738;9.214;2023-04-27T02:03:18;4.40;;;3.95;;
793;SDS011;380;48.738;9.214;2023-04-27T02:05:44;5.50;;;4.03;;
793;SDS011;380;48.738;9.214;2023-04-27T02:08:11;6.38;;;4.68;;
793;SDS011;380;48.738;9.214;2023-04-27T02:10:37;3.60;;;3.22;;
793;SDS011;380;48.738;9.214;2023-04-27T02:13:03;7.05;;;4.28;;
793;SDS011;380;48.738;9.214;2023-04-27T02:15:29;4.47;;;3.65;;
793;SDS011;380;48.738;9.214;2023-04-27T02:17:55;4.05;;;3.65;;
793;SDS011;380;48.738;9.214;2023-04-27T02:20:22;4.22;;;3.58;;
793;SDS011;380;48.738;9.214;2023-04-27T02:22:48;5.90;;;4.15;;
793;SDS011;380;48.738;9.214;2023-04-27T02:25:14;5.57;;;3.88;;
793;SDS011;380;48.738;9.214;2023-04-27T02:27:40;5.03;;;4.13;;
793;SDS011;380;48.738;9.214;2023-04-27T02:30:06;4.43;;;3.95;;
793;SDS011;380;48.738;9.214;2023-04-27T02:32:33;5.63;;;4.05;;
793;SDS011;380;48.738;9.214;2023-04-27T02:34:59;5.47;;;3.92;;
793;SDS011;380;48.738;9.214;2023-04-27T02:37:25;5.20;;;4.35;;
793;SDS011;380;48.738;9.214;2023-04-27T02:39:51;5.40;;;4.43;;
793;SDS011;380;48.738;9.214;2023-04-27T02:42:17;4.47;;;3.85;;
793;SDS011;380;48.738;9.214;2023-04-27T02:44:43;4.95;;;3.88;;
793;SDS011;380;48.738;9.214;2023-04-27T02:47:10;4.22;;;3.50;;
793;SDS011;380;48.738;9.214;2023-04-27T02:49:36;5.82;;;4.13;;
793;SDS011;380;48.738;9.214;2023-04-27T02:52:02;7.25;;;4.43;;
793;SDS011;380;48.738;9.214;2023-04-27T02:54:28;6.68;;;4.70;;
793;SDS011;380;48.738;9.214;2023-04-27T02:56:54;5.10;;;4.47;;
793;SDS011;380;48.738;9.214;2023-04-27T02:59:20;5.55;;;4.28;;
793;SDS011;380;48.738;9.214;2023-04-27T03:01:46;3.97;;;3.55;;
793;SDS011;380;48.738;9.214;2023-04-27T03:04:13;4.82;;;4.28;;
793;SDS011;380;48.738;9.214;2023-04-27T03:06:39;6.60;;;4.05;;
793;SDS011;380;48.738;9.214;2023-04-27T03:09:05;4.35;;;3.92;;
793;SDS011;380;48.738;9.214;2023-04-27T03:11:31;4.95;;;3.88;;
793;SDS011;380;48.738;9.214;2023-04-27T03:13:57;11.00;;;4.78;;
793;SDS011;380;48.738;9.214;2023-04-27T03:16:23;5.03;;;4.30;;
793;SDS011;380;48.738;9.214;2023-04-27T03:18:49;5.47;;;4.70;;
793;SDS011;380;48.738;9.214;2023-04-27T03:21:15;5.32;;;4.28;;
793;SDS011;380;48.738;9.214;2023-04-27T03:23:41;4.90;;;4.13;;
793;SDS011;380;48.738;9.214;2023-04-27T03:26:08;5.32;;;4.40;;
793;SDS011;380;48.738;9.214;2023-04-27T03:28:34;4.88;;;4.03;;
793;SDS011;380;48.738;9.214;2023-04-27T03:31:11;5.60;;;4.78;;
793;SDS011;380;48.738;9.214;2023-04-27T03:33:37;6.45;;;4.45;;
793;SDS011;380;48.738;9.214;2023-04-27T03:36:03;5.95;;;4.35;;
793;SDS011;380;48.738;9.214;2023-04-27T03:38:30;5.70;;;4.50;;
793;SDS011;380;48.738;9.214;2023-04-27T03:40:56;6.55;;;4.97;;
793;SDS011;380;48.738;9.214;2023-04-27T03:43:23;5.13;;;3.90;;
793;SDS011;380;48.738;9.214;2023-04-27T03:45:49;6.43;;;4.40;;
793;SDS011;380;48.738;9.214;2023-04-27T03:48:15;4.97;;;4.03;;
793;SDS011;380;48.738;9.214;2023-04-27T03:50:42;5.60;;;4.18;;
793;SDS011;380;48.738;9.214;2023-04-27T03:53:08;5.65;;;4.13;;
793;SDS011;380;48.738;9.214;2023-04-27T03:55:42;7.32;;;4.63;;
793;SDS011;380;48.738;9.214;2023-04-27T03:58:08;5.57;;;5.03;;
793;SDS011;380;48.738;9.214;2023-04-27T04:00:34;9.55;;;4.90;;
793;SDS011;380;48.738;9.214;2023-04-27T04:03:01;5.78;;;4.25;;
793;SDS011;380;48.738;9.214;2023-04-27T04:05:27;5.70;;;4.05;;
793;SDS011;380;48.738;9.214;2023-04-27T04:07:54;5.70;;;4.93;;
793;SDS011;380;48.738;9.214;2023-04-27T04:10:21;6.28;;;4.75;;
793;SDS011;380;48.738;9.214;2023-04-27T04:12:47;8.35;;;5.03;;
793;SDS011;380;48.738;9.214;2023-04-27T04:15:13;5.90;;;5.18;;
793;SDS011;380;48.738;9.214;2023-04-27T04:17:39;8.38;;;5.40;;
793;SDS011;380;48.738;9.214;2023-04-27T04:20:05;6.60;;;4.95;;
793;SDS011;380;48.738;9.214;2023-04-27T04:22:37;5.28;;;4.50;;
793;SDS011;380;48.738;9.214;2023-04-27T04:25:03;4.93;;;4.22;;
793;SDS011;380;48.738;9.214;2023-04-27T04:27:29;6.90;;;5.22;;
793;SDS011;380;48.738;9.214;2023-04-27T04:29:56;7.88;;;5.32;;
793;SDS011;380;48.738;9.214;2023-04-27T04:32:25;8.65;;;5.38;;
793;SDS011;380;48.738;9.214;2023-04-27T04:34:55;7.50;;;4.28;;
793;SDS011;380;48.738;9.214;2023-04-27T04:37:21;6.57;;;4.70;;
793;SDS011;380;48.738;9.214;2023-04-27T04:39:48;5.70;;;4.40;;
793;SDS011;380;48.738;9.214;2023-04-27T04:42:13;5.45;;;4.78;;
793;SDS011;380;48.738;9.214;2023-04-27T04:44:40;4.57;;;4.18;;
793;SDS011;380;48.738;9.214;2023-04-27T04:47:06;6.07;;;5.20;;
793;SDS011;380;48.738;9.214;2023-04-27T04:49:34;5.93;;;5.03;;
793;SDS011;380;48.738;9.214;2023-04-27T04:52:00;6.40;;;4.88;;
793;SDS011;380;48.738;9.214;2023-04-27T04:54:26;11.18;;;5.22;;
793;SDS011;380;48.738;9.214;2023-04-27T04:56:52;6.80;;;5.07;;
793;SDS011;380;48.738;9.214;2023-04-27T04:59:18;5.82;;;3.83;;
793;SDS011;380;48.738;9.214;2023-04-27T05:01:43;5.35;;;4.47;;
793;SDS011;380;48.738;9.214;2023-04-27T05:04:09;4.65;;;3.97;;
793;SDS011;380;48.738;9.214;2023-04-27T05:06:35;5.15;;;4.05;;
793;SDS011;380;48.738;9.214;2023-04-27T05:09:01;5.45;;;4.40;;
793;SDS011;380;48.738;9.214;2023-04-27T05:11:30;6.18;;;4.80;;
793;SDS011;380;48.738;9.214;2023-04-27T05:13:56;5.90;;;3.78;;
793;SDS011;380;48.738;9.214;2023-04-27T05:16:22;4.85;;;4.05;;
793;SDS011;380;48.738;9.214;2023-04-27T05:18:50;6.90;;;4.65;;
793;SDS011;380;48.738;9.214;2023-04-27T05:21:16;5.60;;;3.83;;
793;SDS011;380;48.738;9.214;2023-04-27T05:23:44;6.85;;;3.70;;
793;SDS011;380;48.738;9.214;2023-04-27T05:26:11;5.50;;;4.25;;
793;SDS011;380;48.738;9.214;2023-04-27T05:28:37;5.57;;;3.78;;
793;SDS011;380;48.738;9.214;2023-04-27T05:31:03;6.30;;;3.67;;
793;SDS011;380;48.738;9.214;2023-04-27T05:33:30;4.97;;;4.35;;
793;SDS011;380;48.738;9.214;2023-04-27T05:35:56;6.95;;;4.72;;
793;SDS011;380;48.738;9.214;2023-04-27T05:38:22;5.57;;;3.97;;
793;SDS011;380;48.738;9.214;2023-04-27T05:40:54;5.53;;;4.30;;
793;SDS011;380;48.738;9.214;2023-04-27T05:43:20;4.88;;;4.22;;
793;SDS011;380;48.738;9.214;2023-04-27T05:45:46;5.40;;;4.30;;
793;SDS011;380;48.738;9.214;2023-04-27T05:48:12;4.55;;;4.00;;
793;SDS011;380;48.738;9.214;2023-04-27T05:50:38;5.32;;;4.05;;
793;SDS011;380;48.738;9.214;2023-04-27T05:53:04;4.57;;;4.00;;
793;SDS011;380;48.738;9.214;2023-04-27T05:55:31;5.05;;;4.55;;
793;SDS011;380;48.738;9.214;2023-04-27T05:57:57;12.20;;;4.68;;
793;SDS011;380;48.738;9.214;2023-04-27T06:00:23;6.40;;;4.07;;
793;SDS011;380;48.738;9.214;2023-04-27T06:02:49;5.65;;;4.65;;
793;SDS011;380;48.738;9.214;2023-04-27T06:05:15;5.05;;;4.03;;
793;SDS011;380;48.738;9.214;2023-04-27T06:07:41;4.85;;;4.18;;
793;SDS011;380;48.738;9.214;2023-04-27T06:10:08;4.90;;;4.32;;
793;SDS011;380;48.738;9.214;2023-04-27T06:12:34;9.52;;;4.85;;
793;SDS011;380;48.738;9.214;2023-04-27T06:15:00;11.45;;;4.45;;
793;SDS011;380;48.738;9.214;2023-04-27T06:17:31;5.72;;;4.10;;
793;SDS011;380;48.738;9.214;2023-04-27T06:19:57;4.90;;;4.35;;
793;SDS011;380;48.738;9.214;2023-04-27T06:22:23;6.30;;;5.10;;
793;SDS011;380;48.738;9.214;2023-04-27T06:24:50;5.72;;;4.25;;
793;SDS011;380;48.738;9.214;2023-04-27T06:27:16;4.63;;;4.22;;
793;SDS011;380;48.738;9.214;2023-04-27T06:29:41;5.93;;;4.20;;
793;SDS011;380;48.738;9.214;2023-04-27T06:32:07;7.05;;;4.32;;
793;SDS011;380;48.738;9.214;2023-04-27T06:34:33;5.35;;;3.90;;
793;SDS011;380;48.738;9.214;2023-04-27T06:37:00;5.28;;;4.35;;
793;SDS011;380;48.738;9.214;2023-04-27T06:39:26;3.65;;;3.17;;
793;SDS011;380;48.738;9.214;2023-04-27T06:41:52;5.18;;;4.15;;
793;SDS011;380;48.738;9.214;2023-04-27T06:44:18;6.47;;;4.22;;
793;SDS011;380;48.738;9.214;2023-04-27T06:46:44;8.50;;;5.18;;
793;SDS011;380;48.738;9.214;2023-04-27T06:49:10;7.10;;;4.47;;
793;SDS011;380;48.738;9.214;2023-04-27T06:51:36;5.22;;;3.97;;
793;SDS011;380;48.738;9.214;2023-04-27T06:54:02;5.43;;;4.00;;
793;SDS011;380;48.738;9.214;2023-04-27T06:56:28;5.10;;;4.03;;
793;SDS011;380;48.738;9.214;2023-04-27T06:58:54;6.80;;;4.40;;
793;SDS011;380;48.738;9.214;2023-04-27T07:01:20;5.47;;;3.97;;
793;SDS011;380;48.738;9.214;2023-04-27T07:03:46;6.07;;;5.13;;
793;SDS011;380;48.738;9.214;2023-04-27T07:06:12;5.07;;;4.57;;
793;SDS011;380;48.738;9.214;2023-04-27T07:08:37;6.15;;;4.18;;
793;SDS011;380;48.738;9.214;2023-04-27T07:11:03;4.70;;;4.22;;
793;SDS011;380;48.738;9.214;2023-04-27T07:13:29;6.15;;;4.95;;
793;SDS011;380;48.738;9.214;2023-04-27T07:15:55;4.78;;;4.22;;
793;SDS011;380;48.738;9.214;2023-04-27T07:18:22;7.03;;;4.85;;
793;SDS011;380;48.738;9.214;2023-04-27T07:20:48;7.20;;;5.00;;
793;SDS011;380;48.738;9.214;2023-04-27T07:23:14;6.50;;;4.28;;
793;SDS011;380;48.738;9.214;2023-04-27T07:25:40;6.13;;;4.95;;
793;SDS011;380;48.738;9.214;2023-04-27T07:28:07;8.95;;;4.95;;
793;SDS011;380;48.738;9.214;2023-04-27T07:30:33;7.10;;;4.72;;
793;SDS011;380;48.738;9.214;2023-04-27T07:33:00;5.93;;;4.55;;
793;SDS011;380;48.738;9.214;2023-04-27T07:35:26;5.88;;;4.40;;
793;SDS011;380;48.738;9.214;2023-04-27T07:37:53;6.93;;;4.40;;
793;SDS011;380;48.738;9.214;2023-04-27T07:40:20;4.43;;;4.00;;
793;SDS011;380;48.738;9.214;2023-04-27T07:42:48;5.05;;;4.28;;
793;SDS011;380;48.738;9.214;2023-04-27T07:45:14;8.23;;;4.75;;
793;SDS011;380;48.738;9.214;2023-04-27T07:47:41;4.90;;;4.05;;
793;SDS011;380;48.738;9.214;2023-04-27T07:50:08;5.43;;;4.32;;
793;SDS011;380;48.738;9.214;2023-04-27T07:52:34;6.40;;;4.25;;
793;SDS011;380;48.738;9.214;2023-04-27T07:55:01;8.18;;;4.40;;
793;SDS011;380;48.738;9.214;2023-04-27T07:57:27;6.50;;;3.78;;
793;SDS011;380;48.738;9.214;2023-04-27T07:59:53;4.32;;;3.88;;
793;SDS011;380;48.738;9.214;2023-04-27T08:02:19;4.53;;;4.03;;
793;SDS011;380;48.738;9.214;2023-04-27T08:04:45;4.80;;;3.88;;
793;SDS011;380;48.738;9.214;2023-04-27T08:07:11;4.47;;;4.00;;
793;SDS011;380;48.738;9.214;2023-04-27T08:09:37;5.10;;;4.35;;
793;SDS011;380;48.738;9.214;2023-04-27T08:12:03;5.22;;;3.88;;
793;SDS011;380;48.738;9.214;2023-04-27T08:14:29;8.35;;;3.75;;
793;SDS011;380;48.738;9.214;2023-04-27T08:16:55;6.65;;;4.00;;
793;SDS011;380;48.738;9.214;2023-04-27T08:19:21;4.70;;;3.95;;
793;SDS011;380;48.738;9.214;2023-04-27T08:21:47;6.63;;;4.45;;
793;SDS011;380;48.738;9.214;2023-04-27T08:24:13;9.15;;;4.68;;
793;SDS011;380;48.738;9.214;2023-04-27T08:26:39;5.68;;;4.13;;
793;SDS011;380;48.738;9.214;2023-04-27T08:29:05;4.63;;;3.30;;
793;SDS011;380;48.738;9.214;2023-04-27T08:31:32;7.20;;;3.95;;
793;SDS011;380;48.738;9.214;2023-04-27T08:33:58;6.78;;;3.92;;
793;SDS011;380;48.738;9.214;2023-04-27T08:36:23;5.60;;;3.67;;
793;SDS011;380;48.738;9.214;2023-04-27T08:38:50;3.97;;;3.33;;
793;SDS011;380;48.738;9.214;2023-04-27T08:41:17;5.45;;;3.70;;
793;SDS011;380;48.738;9.214;2023-04-27T08:43:43;3.97;;;3.10;;
793;SDS011;380;48.738;9.214;2023-04-27T08:46:09;5.22;;;2.88;;
793;SDS011;380;48.738;9.214;2023-04-27T08:48:35;4.57;;;3.42;;
793;SDS011;380;48.738;9.214;2023-04-27T08:51:01;4.55;;;3.58;;
793;SDS011;380;48.738;9.214;2023-04-27T08:53:27;5.25;;;3.10;;
793;SDS011;380;48.738;9.214;2023-04-27T08:55:54;6.63;;;3.17;;
793;SDS011;380;48.738;9.214;2023-04-27T08:58:21;9.15;;;3.13;;
793;SDS011;380;48.738;9.214;2023-04-27T09:00:47;5.32;;;3.15;;
793;SDS011;380;48.738;9.214;2023-04-27T09:03:21;4.82;;;3.10;;
793;SDS011;380;48.738;9.214;2023-04-27T09:05:47;4.82;;;2.67;;
793;SDS011;380;48.738;9.214;2023-04-27T09:08:13;4.20;;;2.78;;
793;SDS011;380;48.738;9.214;2023-04-27T09:10:43;3.80;;;3.00;;
793;SDS011;380;48.738;9.214;2023-04-27T09:13:09;4.88;;;2.50;;
793;SDS011;380;48.738;9.214;2023-04-27T09:15:47;3.88;;;2.67;;
793;SDS011;380;48.738;9.214;2023-04-27T09:18:15;5.05;;;2.83;;
793;SDS011;380;48.738;9.214;2023-04-27T09:20:42;3.53;;;2.35;;
793;SDS011;380;48.738;9.214;2023-04-27T09:23:08;3.67;;;2.80;;
793;SDS011;380;48.738;9.214;2023-04-27T09:25:34;2.40;;;2.00;;
793;SDS011;380;48.738;9.214;2023-04-27T09:28:00;4.05;;;3.15;;
793;SDS011;380;48.738;9.214;2023-04-27T09:30:26;5.38;;;2.90;;
793;SDS011;380;48.738;9.214;2023-04-27T09:35:23;4.90;;;3.10;;
793;SDS011;380;48.738;9.214;2023-04-27T09:37:50;7.05;;;2.97;;
793;SDS011;380;48.738;9.214;2023-04-27T09:40:17;4.50;;;2.78;;
793;SDS011;380;48.738;9.214;2023-04-27T09:42:44;3.53;;;2.22;;
793;SDS011;380;48.738;9.214;2023-04-27T09:45:10;4.47;;;2.70;;
793;SDS011;380;48.738;9.214;2023-04-27T09:47:36;3.22;;;2.33;;
793;SDS011;380;48.738;9.214;2023-04-27T09:50:03;4.95;;;2.88;;
793;SDS011;380;48.738;9.214;2023-04-27T09:52:30;5.03;;;3.10;;
793;SDS011;380;48.738;9.214;2023-04-27T09:54:57;4.53;;;2.85;;
793;SDS011;380;48.738;9.214;2023-04-27T09:57:32;3.47;;;2.35;;
793;SDS011;380;48.738;9.214;2023-04-27T10:02:39;4.60;;;2.60;;
793;SDS011;380;48.738;9.214;2023-04-27T10:05:21;5.50;;;2.90;;
793;SDS011;380;48.738;9.214;2023-04-27T10:07:50;4.28;;;2.45;;
793;SDS011;380;48.738;9.214;2023-04-27T10:10:17;10.70;;;3.28;;
793;SDS011;380;48.738;9.214;2023-04-27T10:12:54;5.32;;;2.50;;
793;SDS011;380;48.738;9.214;2023-04-27T10:15:24;5.70;;;3.10;;
793;SDS011;380;48.738;9.214;2023-04-27T10:17:50;3.22;;;2.63;;
793;SDS011;380;48.738;9.214;2023-04-27T10:20:27;4.97;;;3.40;;
793;SDS011;380;48.738;9.214;2023-04-27T10:22:53;5.65;;;3.17;;
793;SDS011;380;48.738;9.214;2023-04-27T10:25:23;8.00;;;3.13;;
793;SDS011;380;48.738;9.214;2023-04-27T10:27:54;5.57;;;3.00;;
793;SDS011;380;48.738;9.214;2023-04-27T10:30:21;4.60;;;3.28;;
793;SDS011;380;48.738;9.214;2023-04-27T10:35:16;4.80;;;2.85;;
793;SDS011;380;48.738;9.214;2023-04-27T10:37:42;4.85;;;2.95;;
793;SDS011;380;48.738;9.214;2023-04-27T10:40:09;4.47;;;2.95;;
793;SDS011;380;48.738;9.214;2023-04-27T10:42:38;4.72;;;3.42;;
793;SDS011;380;48.738;9.214;2023-04-27T10:45:04;4.18;;;3.05;;
793;SDS011;380;48.738;9.214;2023-04-27T10:47:38;4.95;;;2.95;;
793;SDS011;380;48.738;9.214;2023-04-27T10:50:07;3.83;;;2.55;;
793;SDS011;380;48.738;9.214;2023-04-27T10:52:35;3.92;;;2.67;;
793;SDS011;380;48.738;9.214;2023-04-27T10:55:11;6.40;;;3.28;;
793;SDS011;380;48.738;9.214;2023-04-27T10:57:53;3.75;;;2.97;;
793;SDS011;380;48.738;9.214;2023-04-27T11:00:24;6.50;;;2.78;;
793;SDS011;380;48.738;9.214;2023-04-27T11:02:51;3.63;;;2.38;;
793;SDS011;380;48.738;9.214;2023-04-27T11:05:18;3.83;;;2.70;;
793;SDS011;380;48.738;9.214;2023-04-27T11:07:44;5.35;;;2.75;;
793;SDS011;380;48.738;9.214;2023-04-27T11:10:15;3.88;;;2.90;;
793;SDS011;380;48.738;9.214;2023-04-27T11:12:41;3.20;;;2.65;;
793;SDS011;380;48.738;9.214;2023-04-27T11:15:07;6.03;;;2.88;;
793;SDS011;380;48.738;9.214;2023-04-27T11:17:33;8.07;;;3.15;;
793;SDS011;380;48.738;9.214;2023-04-27T11:19:59;4.32;;;3.13;;
793;SDS011;380;48.738;9.214;2023-04-27T11:22:25;4.00;;;3.05;;
793;SDS011;380;48.738;9.214;2023-04-27T11:24:51;5.13;;;2.95;;
793;SDS011;380;48.738;9.214;2023-04-27T11:27:18;3.83;;;3.30;;
793;SDS011;380;48.738;9.214;2023-04-27T11:29:46;5.68;;;3.45;;
793;SDS011;380;48.738;9.214;2023-04-27T11:32:18;4.90;;;3.25;;
793;SDS011;380;48.738;9.214;2023-04-27T11:34:51;4.93;;;2.80;;
793;SDS011;380;48.738;9.214;2023-04-27T11:37:20;3.40;;;2.47;;
793;SDS011;380;48.738;9.214;2023-04-27T11:39:48;5.68;;;2.10;;
793;SDS011;380;48.738;9.214;2023-04-27T11:47:25;4.57;;;2.95;;
793;SDS011;380;48.738;9.214;2023-04-27T11:49:53;3.78;;;1.88;;
793;SDS011;380;48.738;9.214;2023-04-27T11:52:20;2.45;;;1.50;;
793;SDS011;380;48.738;9.214;2023-04-27T11:54:47;5.32;;;2.83;;
793;SDS011;380;48.738;9.214;2023-04-27T11:57:13;3.38;;;2.30;;
793;SDS011;380;48.738;9.214;2023-04-27T11:59:39;4.22;;;3.10;;
793;SDS011;380;48.738;9.214;2023-04-27T12:02:06;4.63;;;3.17;;
793;SDS011;380;48.738;9.214;2023-04-27T12:04:32;4.32;;;3.15;;
793;SDS011;380;48.738;9.214;2023-04-27T12:06:59;4.25;;;3.53;;
793;SDS011;380;48.738;9.214;2023-04-27T12:09:26;4.22;;;3.47;;
793;SDS011;380;48.738;9.214;2023-04-27T12:11:52;9.10;;;3.97;;
793;SDS011;380;48.738;9.214;2023-04-27T12:14:19;7.28;;;3.85;;
793;SDS011;380;48.738;9.214;2023-04-27T12:16:45;5.47;;;4.47;;
793;SDS011;380;48.738;9.214;2023-04-27T12:19:11;4.80;;;4.30;;
793;SDS011;380;48.738;9.214;2023-04-27T12:21:37;7.43;;;4.03;;
793;SDS011;380;48.738;9.214;2023-04-27T12:24:03;8.13;;;3.75;;
793;SDS011;380;48.738;9.214;2023-04-27T12:26:30;5.45;;;3.55;;
793;SDS011;380;48.738;9.214;2023-04-27T12:28:55;4.85;;;4.10;;
793;SDS011;380;48.738;9.214;2023-04-27T12:31:21;6.50;;;3.30;;
793;SDS011;380;48.738;9.214;2023-04-27T12:33:49;3.83;;;2.95;;
793;SDS011;380;48.738;9.214;2023-04-27T12:36:16;5.80;;;3.83;;
793;SDS011;380;48.738;9.214;2023-04-27T12:38:42;3.67;;;2.95;;
793;SDS011;380;48.738;9.214;2023-04-27T12:41:08;3.42;;;2.83;;
793;SDS011;380;48.738;9.214;2023-04-27T12:43:34;6.07;;;2.83;;
793;SDS011;380;48.738;9.214;2023-04-27T12:46:01;5.75;;;2.80;;
793;SDS011;380;48.738;9.214;2023-04-27T12:48:27;3.78;;;2.70;;
793;SDS011;380;48.738;9.214;2023-04-27T12:50:53;3.85;;;2.47;;
793;SDS011;380;48.738;9.214;2023-04-27T12:53:19;3.65;;;2.67;;
793;SDS011;380;48.738;9.214;2023-04-27T12:55:45;4.72;;;3.00;;
793;SDS011;380;48.738;9.214;2023-04-27T12:58:11;6.97;;;2.75;;
793;SDS011;380;48.738;9.214;2023-04-27T13:00:37;4.60;;;2.88;;
793;SDS011;380;48.738;9.214;2023-04-27T13:03:04;4.05;;;2.83;;
793;SDS011;380;48.738;9.214;2023-04-27T13:05:30;5.22;;;2.65;;
793;SDS011;380;48.738;9.214;2023-04-27T13:07:56;3.38;;;2.75;;
793;SDS011;380;48.738;9.214;2023-04-27T13:10:22;4.05;;;2.70;;
793;SDS011;380;48.738;9.214;2023-04-27T13:12:48;5.03;;;3.70;;
793;SDS011;380;48.738;9.214;2023-04-27T13:15:14;3.20;;;2.58;;
793;SDS011;380;48.738;9.214;2023-04-27T13:17:40;4.32;;;2.72;;
793;SDS011;380;48.738;9.214;2023-04-27T13:20:06;3.00;;;2.40;;
793;SDS011;380;48.738;9.214;2023-04-27T13:22:32;3.63;;;2.78;;
793;SDS011;380;48.738;9.214;2023-04-27T13:24:59;4.53;;;2.38;;
793;SDS011;380;48.738;9.214;2023-04-27T13:27:24;4.97;;;2.95;;
793;SDS011;380;48.738;9.214;2023-04-27T13:29:52;3.90;;;2.78;;
793;SDS011;380;48.738;9.214;2023-04-27T13:32:18;4.25;;;2.60;;
793;SDS011;380;48.738;9.214;2023-04-27T13:34:44;7.65;;;3.72;;
793;SDS011;380;48.738;9.214;2023-04-27T13:37:10;4.05;;;2.53;;
793;SDS011;380;48.738;9.214;2023-04-27T13:39:36;3.63;;;2.70;;
793;SDS011;380;48.738;9.214;2023-04-27T13:42:02;4.25;;;3.15;;
793;SDS011;380;48.738;9.214;2023-04-27T13:44:28;5.05;;;3.10;;
793;SDS011;380;48.738;9.214;2023-04-27T13:46:55;3.30;;;3.00;;
793;SDS011;380;48.738;9.214;2023-04-27T13:49:21;6.05;;;3.28;;
793;SDS011;380;48.738;9.214;2023-04-27T13:51:47;8.23;;;3.42;;
793;SDS011;380;48.738;9.214;2023-04-27T13:54:13;3.70;;;2.85;;
793;SDS011;380;48.738;9.214;2023-04-27T13:56:39;4.25;;;2.72;;
793;SDS011;380;48.738;9.214;2023-04-27T13:59:05;4.43;;;2.72;;
793;SDS011;380;48.738;9.214;2023-04-27T14:01:33;4.93;;;3.08;;
793;SDS011;380;48.738;9.214;2023-04-27T14:03:59;3.25;;;2.40;;
793;SDS011;380;48.738;9.214;2023-04-27T14:06:25;4.40;;;2.90;;
793;SDS011;380;48.738;9.214;2023-04-27T14:08:51;2.85;;;2.22;;
793;SDS011;380;48.738;9.214;2023-04-27T14:11:17;2.90;;;1.85;;
793;SDS011;380;48.738;9.214;2023-04-27T14:13:43;3.47;;;2.25;;
793;SDS011;380;48.738;9.214;2023-04-27T14:16:10;3.45;;;2.15;;
793;SDS011;380;48.738;9.214;2023-04-27T14:18:36;3.33;;;2.42;;
793;SDS011;380;48.738;9.214;2023-04-27T14:21:02;3.45;;;2.28;;
793;SDS011;380;48.738;9.214;2023-04-27T14:23:28;6.93;;;2.92;;
793;SDS011;380;48.738;9.214;2023-04-27T14:25:54;4.35;;;1.88;;
793;SDS011;380;48.738;9.214;2023-04-27T14:28:20;4.18;;;2.38;;
793;SDS011;380;48.738;9.214;2023-04-27T14:30:46;3.00;;;1.92;;
793;SDS011;380;48.738;9.214;2023-04-27T14:33:12;3.70;;;2.20;;
793;SDS011;380;48.738;9.214;2023-04-27T14:35:38;4.35;;;2.15;;
793;SDS011;380;48.738;9.214;2023-04-27T14:38:04;3.60;;;2.10;;
793;SDS011;380;48.738;9.214;2023-04-27T14:40:31;4.20;;;2.38;;
793;SDS011;380;48.738;9.214;2023-04-27T14:42:57;3.70;;;2.30;;
793;SDS011;380;48.738;9.214;2023-04-27T14:45:23;2.92;;;1.90;;
793;SDS011;380;48.738;9.214;2023-04-27T14:47:49;6.05;;;1.85;;
793;SDS011;380;48.738;9.214;2023-04-27T14:50:15;2.50;;;1.90;;
793;SDS011;380;48.738;9.214;2023-04-27T14:52:41;4.43;;;2.65;;
793;SDS011;380;48.738;9.214;2023-04-27T14:55:07;3.35;;;1.92;;
793;SDS011;380;48.738;9.214;2023-04-27T14:57:34;2.80;;;1.80;;
793;SDS011;380;48.738;9.214;2023-04-27T15:00:00;3.35;;;2.30;;
793;SDS011;380;48.738;9.214;2023-04-27T15:02:32;3.85;;;2.22;;
793;SDS011;380;48.738;9.214;2023-04-27T15:04:58;3.75;;;2.03;;
793;SDS011;380;48.738;9.214;2023-04-27T15:07:24;3.35;;;2.15;;
793;SDS011;380;48.738;9.214;2023-04-27T15:09:50;4.53;;;1.90;;
793;SDS011;380;48.738;9.214;2023-04-27T15:12:18;3.10;;;2.10;;
793;SDS011;380;48.738;9.214;2023-04-27T15:14:44;3.40;;;2.05;;
793;SDS011;380;48.738;9.214;2023-04-27T15:17:10;6.10;;;2.35;;
793;SDS011;380;48.738;9.214;2023-04-27T15:19:37;3.83;;;2.63;;
793;SDS011;380;48.738;9.214;2023-04-27T15:22:03;4.10;;;2.15;;
793;SDS011;380;48.738;9.214;2023-04-27T15:24:29;2.80;;;1.95;;
793;SDS011;380;48.738;9.214;2023-04-27T15:26:55;2.67;;;2.10;;
793;SDS011;380;48.738;9.214;2023-04-27T15:29:21;4.38;;;1.95;;
793;SDS011;380;48.738;9.214;2023-04-27T15:31:47;3.83;;;2.15;;
793;SDS011;380;48.738;9.214;2023-04-27T15:34:13;2.90;;;1.60;;
793;SDS011;380;48.738;9.214;2023-04-27T15:36:39;3.35;;;2.10;;
793;SDS011;380;48.738;9.214;2023-04-27T15:39:05;3.67;;;1.77;;
793;SDS011;380;48.738;9.214;2023-04-27T15:41:31;4.43;;;1.98;;
793;SDS011;380;48.738;9.214;2023-04-27T15:43:57;4.57;;;1.63;;
793;SDS011;380;48.738;9.214;2023-04-27T15:46:23;2.67;;;1.63;;
793;SDS011;380;48.738;9.214;2023-04-27T15:48:50;2.17;;;1.30;;
793;SDS011;380;48.738;9.214;2023-04-27T15:51:15;4.15;;;1.70;;
793;SDS011;380;48.738;9.214;2023-04-27T15:53:41;3.50;;;1.73;;